createdAt,value
2016-09-28T00:00:23.544Z,20.4
2016-09-28T00:00:55.933Z,20.34
2016-09-28T00:01:28.265Z,20.37
2016-09-28T00:02:00.593Z,20.37
2016-09-28T00:02:32.919Z,20.38
2016-09-28T00:03:05.244Z,20.42
2016-09-28T00:03:37.569Z,20.32
2016-09-28T00:04:09.902Z,20.42
2016-09-28T00:04:42.236Z,20.53
2016-09-28T00:05:14.565Z,20.42
2016-09-28T00:05:46.875Z,20.41
2016-09-28T00:06:19.322Z,20.46
2016-09-28T00:06:52.617Z,20.42
2016-09-28T00:07:25.771Z,20.38
2016-09-28T00:07:58.095Z,20.41
2016-09-28T00:08:30.403Z,20.49
2016-09-28T00:09:02.738Z,20.49
2016-09-28T00:09:35.077Z,20.4
2016-09-28T00:10:07.398Z,20.35
2016-09-28T00:10:39.706Z,20.34
2016-09-28T00:11:12.034Z,20.34
2016-09-28T00:11:44.340Z,20.41
2016-09-28T00:12:16.680Z,20.44
2016-09-28T00:12:49.014Z,20.44
2016-09-28T00:13:21.326Z,20.37
2016-09-28T00:13:53.660Z,20.48
2016-09-28T00:14:25.979Z,20.38
2016-09-28T00:14:58.302Z,20.34
2016-09-28T00:15:30.617Z,20.35
2016-09-28T00:16:02.938Z,20.41
2016-09-28T00:16:35.262Z,20.34
2016-09-28T00:17:07.589Z,20.38
2016-09-28T00:17:39.915Z,20.37
2016-09-28T00:18:12.235Z,20.34
2016-09-28T00:18:44.563Z,20.38
2016-09-28T00:19:16.886Z,20.4
2016-09-28T00:19:49.206Z,20.38
2016-09-28T00:20:21.539Z,20.4
2016-09-28T00:20:53.870Z,20.35
2016-09-28T00:21:26.192Z,20.41
2016-09-28T00:21:58.515Z,20.4
2016-09-28T00:22:30.850Z,20.32
2016-09-28T00:23:03.174Z,20.38
2016-09-28T00:23:35.484Z,20.32
2016-09-28T00:24:07.816Z,20.37
2016-09-28T00:24:40.136Z,20.35
2016-09-28T00:25:12.474Z,20.35
2016-09-28T00:25:44.819Z,20.41
2016-09-28T00:26:17.158Z,20.35
2016-09-28T00:26:49.471Z,20.26
2016-09-28T00:27:21.800Z,20.38
2016-09-28T00:27:54.100Z,20.38
2016-09-28T00:28:26.425Z,20.35
2016-09-28T00:28:58.746Z,20.37
2016-09-28T00:29:31.074Z,20.35
2016-09-28T00:30:03.511Z,20.35
2016-09-28T00:30:35.825Z,20.38
2016-09-28T00:31:08.149Z,20.32
2016-09-28T00:31:40.501Z,20.23
2016-09-28T00:32:12.841Z,20.4
2016-09-28T00:32:45.173Z,20.26
2016-09-28T00:33:17.496Z,20.4
2016-09-28T00:33:49.823Z,20.37
2016-09-28T00:34:22.146Z,20.34
2016-09-28T00:34:54.484Z,20.35
2016-09-28T00:35:26.817Z,20.38
2016-09-28T00:35:59.150Z,20.35
2016-09-28T00:36:31.492Z,20.34
2016-09-28T00:37:03.837Z,20.25
2016-09-28T00:37:36.164Z,20.26
2016-09-28T00:38:08.499Z,20.27
2016-09-28T00:38:40.825Z,20.38
2016-09-28T00:39:13.163Z,20.25
2016-09-28T00:39:45.481Z,20.27
2016-09-28T00:40:17.793Z,20.34
2016-09-28T00:40:50.129Z,20.27
2016-09-28T00:41:22.460Z,20.25
2016-09-28T00:41:54.811Z,20.23
2016-09-28T00:42:27.145Z,20.25
2016-09-28T00:42:59.467Z,20.23
2016-09-28T00:43:31.821Z,20.26
2016-09-28T00:44:04.152Z,20.23
2016-09-28T00:44:36.471Z,20.25
2016-09-28T00:45:08.795Z,20.32
2016-09-28T00:45:41.121Z,20.29
2016-09-28T00:46:13.447Z,20.25
2016-09-28T00:46:45.765Z,20.38
2016-09-28T00:47:18.089Z,20.3
2016-09-28T00:47:50.411Z,20.23
2016-09-28T00:48:22.725Z,20.29
2016-09-28T00:48:55.054Z,20.37
2016-09-28T00:49:27.370Z,20.3
2016-09-28T00:49:59.700Z,20.32
2016-09-28T00:50:32.021Z,20.25
2016-09-28T00:51:04.352Z,20.3
2016-09-28T00:51:36.665Z,20.32
2016-09-28T00:52:08.998Z,20.27
2016-09-28T00:52:41.328Z,20.29
2016-09-28T00:53:13.642Z,20.3
2016-09-28T00:53:45.950Z,20.27
2016-09-28T00:54:18.280Z,20.3
2016-09-28T00:54:50.611Z,20.23
2016-09-28T00:55:22.930Z,20.32
2016-09-28T00:55:55.265Z,20.23
2016-09-28T00:56:27.582Z,20.26
2016-09-28T00:56:59.913Z,20.29
2016-09-28T00:57:32.242Z,20.25
2016-09-28T00:58:04.558Z,20.29
2016-09-28T00:58:36.887Z,20.26
2016-09-28T00:59:09.215Z,20.27
2016-09-28T00:59:41.530Z,20.29
2016-09-28T01:00:13.858Z,20.25
2016-09-28T01:00:46.181Z,20.26
2016-09-28T01:01:18.515Z,20.22
2016-09-28T01:01:50.837Z,20.23
2016-09-28T01:02:23.169Z,20.29
2016-09-28T01:02:55.491Z,20.27
2016-09-28T01:03:27.811Z,20.16
2016-09-28T01:04:00.136Z,20.3
2016-09-28T01:04:32.457Z,20.3
2016-09-28T01:05:04.779Z,20.34
2016-09-28T01:05:37.101Z,20.26
2016-09-28T01:06:09.430Z,20.3
2016-09-28T01:06:41.766Z,20.27
2016-09-28T01:07:14.089Z,20.3
2016-09-28T01:07:46.408Z,20.26
2016-09-28T01:08:18.724Z,20.27
2016-09-28T01:08:51.061Z,20.32
2016-09-28T01:09:23.381Z,20.27
2016-09-28T01:09:55.710Z,20.27
2016-09-28T01:10:28.046Z,20.22
2016-09-28T01:11:00.372Z,20.2
2016-09-28T01:11:32.690Z,20.26
2016-09-28T01:12:05.022Z,20.3
2016-09-28T01:12:37.337Z,20.22
2016-09-28T01:13:09.661Z,20.19
2016-09-28T01:13:41.991Z,20.3
2016-09-28T01:14:14.307Z,20.29
2016-09-28T01:14:46.637Z,20.29
2016-09-28T01:15:18.985Z,20.3
2016-09-28T01:15:51.321Z,20.25
2016-09-28T01:16:23.645Z,20.15
2016-09-28T01:16:55.957Z,20.19
2016-09-28T01:17:28.285Z,20.19
2016-09-28T01:18:00.592Z,20.26
2016-09-28T01:18:32.907Z,20.23
2016-09-28T01:19:05.229Z,20.26
2016-09-28T01:19:37.553Z,20.15
2016-09-28T01:20:09.870Z,20.23
2016-09-28T01:20:42.196Z,20.15
2016-09-28T01:21:14.504Z,20.29
2016-09-28T01:21:46.820Z,20.15
2016-09-28T01:22:19.141Z,20.27
2016-09-28T01:22:51.469Z,20.22
2016-09-28T01:23:24.772Z,20.19
2016-09-28T01:23:57.081Z,20.3
2016-09-28T01:24:29.395Z,20.19
2016-09-28T01:25:01.719Z,20.16
2016-09-28T01:25:34.036Z,20.32
2016-09-28T01:26:06.349Z,20.12
2016-09-28T01:26:38.670Z,20.23
2016-09-28T01:27:11.008Z,20.18
2016-09-28T01:27:43.336Z,20.12
2016-09-28T01:28:15.660Z,20.23
2016-09-28T01:28:47.982Z,20.26
2016-09-28T01:29:20.299Z,20.2
2016-09-28T01:29:52.620Z,20.16
2016-09-28T01:30:24.943Z,20.16
2016-09-28T01:30:57.277Z,20.26
2016-09-28T01:31:29.611Z,20.26
2016-09-28T01:32:01.933Z,20.12
2016-09-28T01:32:34.257Z,20.15
2016-09-28T01:33:06.584Z,20.18
2016-09-28T01:33:38.903Z,20.15
2016-09-28T01:34:11.228Z,20.19
2016-09-28T01:34:43.553Z,20.19
2016-09-28T01:35:15.873Z,20.16
2016-09-28T01:35:48.203Z,20.18
2016-09-28T01:36:20.532Z,20.25
2016-09-28T01:36:52.853Z,20.22
2016-09-28T01:37:25.176Z,20.18
2016-09-28T01:37:57.509Z,20.16
2016-09-28T01:38:29.829Z,20.15
2016-09-28T01:39:02.160Z,20.22
2016-09-28T01:39:34.477Z,20.15
2016-09-28T01:40:06.795Z,20.15
2016-09-28T01:40:39.108Z,20.12
2016-09-28T01:41:11.441Z,20.19
2016-09-28T01:41:43.773Z,20.16
2016-09-28T01:42:16.103Z,20.2
2016-09-28T01:42:48.443Z,20.19
2016-09-28T01:43:20.769Z,20.19
2016-09-28T01:43:53.118Z,20.12
2016-09-28T01:44:25.448Z,20.19
2016-09-28T01:44:57.763Z,20.23
2016-09-28T01:45:30.100Z,20.1
2016-09-28T01:46:02.415Z,20.12
2016-09-28T01:46:34.724Z,20.18
2016-09-28T01:47:07.052Z,20.16
2016-09-28T01:47:39.375Z,20.2
2016-09-28T01:48:11.713Z,20.19
2016-09-28T01:48:44.047Z,20.18
2016-09-28T01:49:16.366Z,20.12
2016-09-28T01:49:48.696Z,20.2
2016-09-28T01:50:21.032Z,20.18
2016-09-28T01:50:53.371Z,20.2
2016-09-28T01:51:25.693Z,20.16
2016-09-28T01:51:58.021Z,20.19
2016-09-28T01:52:30.344Z,20.15
2016-09-28T01:53:02.671Z,20.12
2016-09-28T01:53:34.995Z,20.16
2016-09-28T01:54:07.314Z,20.23
2016-09-28T01:54:39.639Z,20.2
2016-09-28T01:55:11.971Z,20.2
2016-09-28T01:55:44.290Z,20.22
2016-09-28T01:56:16.618Z,20.19
2016-09-28T01:56:48.930Z,20.15
2016-09-28T01:57:21.248Z,20.18
2016-09-28T01:57:53.586Z,20.16
2016-09-28T01:58:25.915Z,20.18
2016-09-28T01:58:58.232Z,20.18
2016-09-28T01:59:30.568Z,20.18
2016-09-28T02:00:02.880Z,20.2
2016-09-28T02:00:35.220Z,20.18
2016-09-28T02:01:07.535Z,20.18
2016-09-28T02:01:39.855Z,20.15
2016-09-28T02:02:12.156Z,20.15
2016-09-28T02:02:44.468Z,20.12
2016-09-28T02:03:16.792Z,20.15
2016-09-28T02:03:49.120Z,20.12
2016-09-28T02:04:21.446Z,20.16
2016-09-28T02:04:53.773Z,20.2
2016-09-28T02:05:26.111Z,20.2
2016-09-28T02:05:58.417Z,20.18
2016-09-28T02:06:30.750Z,20.23
2016-09-28T02:07:03.077Z,20.16
2016-09-28T02:07:35.394Z,20.2
2016-09-28T02:08:07.733Z,20.2
2016-09-28T02:08:40.061Z,20.12
2016-09-28T02:09:12.393Z,20.18
2016-09-28T02:09:44.717Z,20.18
2016-09-28T02:10:17.051Z,20.16
2016-09-28T02:10:49.374Z,20.26
2016-09-28T02:11:21.703Z,20.18
2016-09-28T02:11:54.028Z,20.18
2016-09-28T02:12:26.342Z,20.22
2016-09-28T02:12:58.659Z,20.2
2016-09-28T02:13:30.979Z,20.12
2016-09-28T02:14:03.292Z,20.19
2016-09-28T02:14:35.627Z,20.18
2016-09-28T02:15:07.946Z,20.19
2016-09-28T02:15:40.268Z,20.19
2016-09-28T02:16:12.601Z,20.16
2016-09-28T02:16:44.919Z,20.27
2016-09-28T02:17:17.245Z,20.11
2016-09-28T02:17:49.578Z,20.16
2016-09-28T02:18:21.886Z,20.11
2016-09-28T02:18:54.216Z,20.18
2016-09-28T02:19:26.532Z,20.18
2016-09-28T02:19:58.869Z,20.15
2016-09-28T02:20:31.187Z,20.18
2016-09-28T02:21:03.518Z,20.22
2016-09-28T02:21:35.847Z,20.18
2016-09-28T02:22:08.180Z,20.15
2016-09-28T02:22:40.517Z,20.2
2016-09-28T02:23:12.848Z,20.2
2016-09-28T02:23:45.165Z,20.18
2016-09-28T02:24:17.495Z,20.18
2016-09-28T02:24:49.814Z,20.16
2016-09-28T02:25:22.137Z,20.15
2016-09-28T02:25:54.463Z,20.23
2016-09-28T02:26:26.801Z,20.16
2016-09-28T02:26:59.127Z,20.16
2016-09-28T02:27:31.450Z,20.16
2016-09-28T02:28:03.772Z,20.12
2016-09-28T02:28:36.099Z,20.15
2016-09-28T02:29:08.429Z,20.22
2016-09-28T02:29:40.750Z,20.15
2016-09-28T02:30:13.070Z,20.18
2016-09-28T02:30:45.398Z,20.18
2016-09-28T02:31:17.729Z,20.19
2016-09-28T02:31:50.061Z,20.18
2016-09-28T02:32:22.387Z,20.18
2016-09-28T02:32:54.707Z,20.12
2016-09-28T02:33:27.021Z,20.22
2016-09-28T02:33:59.343Z,20.19
2016-09-28T02:34:31.660Z,20.18
2016-09-28T02:35:03.997Z,20.19
2016-09-28T02:35:36.324Z,20.2
2016-09-28T02:36:08.645Z,20.2
2016-09-28T02:36:40.979Z,20.15
2016-09-28T02:37:13.296Z,20.18
2016-09-28T02:37:45.606Z,20.12
2016-09-28T02:38:17.914Z,20.2
2016-09-28T02:38:50.247Z,20.2
2016-09-28T02:39:22.601Z,20.23
2016-09-28T02:39:54.918Z,20.12
2016-09-28T02:40:27.245Z,20.12
2016-09-28T02:40:59.553Z,20.15
2016-09-28T02:41:31.872Z,20.2
2016-09-28T02:42:04.200Z,20.15
2016-09-28T02:42:36.518Z,20.18
2016-09-28T02:43:08.853Z,20.19
2016-09-28T02:43:41.192Z,20.12
2016-09-28T02:44:13.524Z,20.2
2016-09-28T02:44:45.851Z,20.2
2016-09-28T02:45:18.189Z,20.16
2016-09-28T02:45:50.512Z,20.2
2016-09-28T02:46:22.833Z,20.16
2016-09-28T02:46:55.145Z,20.19
2016-09-28T02:47:27.445Z,20.16
2016-09-28T02:47:59.777Z,20.18
2016-09-28T02:48:32.119Z,20.18
2016-09-28T02:49:04.450Z,20.19
2016-09-28T02:49:36.783Z,20.2
2016-09-28T02:50:09.103Z,20.2
2016-09-28T02:50:41.424Z,20.19
2016-09-28T02:51:13.747Z,20.12
2016-09-28T02:51:46.064Z,20.2
2016-09-28T02:52:18.403Z,20.19
2016-09-28T02:52:50.722Z,20.18
2016-09-28T02:53:23.046Z,20.16
2016-09-28T02:53:55.364Z,20.18
2016-09-28T02:54:27.704Z,20.19
2016-09-28T02:55:00.020Z,20.18
2016-09-28T02:55:32.354Z,20.18
2016-09-28T02:56:04.671Z,20.2
2016-09-28T02:56:37.013Z,20.2
2016-09-28T02:57:09.341Z,20.18
2016-09-28T02:57:41.683Z,20.18
2016-09-28T02:58:14.024Z,20.19
2016-09-28T02:58:46.338Z,20.15
2016-09-28T02:59:18.670Z,20.18
2016-09-28T02:59:51.014Z,20.15
2016-09-28T03:00:23.342Z,20.18
2016-09-28T03:00:55.683Z,20.15
2016-09-28T03:01:28.008Z,20.15
2016-09-28T03:02:00.329Z,20.18
2016-09-28T03:02:32.653Z,20.19
2016-09-28T03:03:04.982Z,20.16
2016-09-28T03:03:37.304Z,20.18
2016-09-28T03:04:09.644Z,20.22
2016-09-28T03:04:41.971Z,20.19
2016-09-28T03:05:14.291Z,20.16
2016-09-28T03:05:46.615Z,20.19
2016-09-28T03:06:18.940Z,20.19
2016-09-28T03:06:51.260Z,20.19
2016-09-28T03:07:23.594Z,20.19
2016-09-28T03:07:55.903Z,20.15
2016-09-28T03:08:28.231Z,20.19
2016-09-28T03:09:00.563Z,20.16
2016-09-28T03:09:32.880Z,20.15
2016-09-28T03:10:05.209Z,20.12
2016-09-28T03:10:37.533Z,20.15
2016-09-28T03:11:09.869Z,20.18
2016-09-28T03:11:42.222Z,20.19
2016-09-28T03:12:14.554Z,20.23
2016-09-28T03:12:46.881Z,20.19
2016-09-28T03:13:19.200Z,20.2
2016-09-28T03:13:51.512Z,20.19
2016-09-28T03:14:23.841Z,20.26
2016-09-28T03:14:56.175Z,20.19
2016-09-28T03:15:28.502Z,20.18
2016-09-28T03:16:00.824Z,20.23
2016-09-28T03:16:33.152Z,20.2
2016-09-28T03:17:05.474Z,20.16
2016-09-28T03:17:37.785Z,20.19
2016-09-28T03:18:10.120Z,20.16
2016-09-28T03:18:42.421Z,20.16
2016-09-28T03:19:14.743Z,20.2
2016-09-28T03:19:47.067Z,20.16
2016-09-28T03:20:19.398Z,20.1
2016-09-28T03:20:51.722Z,20.19
2016-09-28T03:21:24.057Z,20.23
2016-09-28T03:21:56.371Z,20.18
2016-09-28T03:22:28.683Z,20.18
2016-09-28T03:23:01.019Z,20.16
2016-09-28T03:23:33.336Z,20.2
2016-09-28T03:24:05.677Z,20.18
2016-09-28T03:24:37.989Z,20.19
2016-09-28T03:25:10.304Z,20.22
2016-09-28T03:25:42.632Z,20.19
2016-09-28T03:26:14.949Z,20.19
2016-09-28T03:26:47.290Z,20.19
2016-09-28T03:27:19.611Z,20.15
2016-09-28T03:27:51.931Z,20.1
2016-09-28T03:28:24.254Z,20.15
2016-09-28T03:28:56.589Z,20.18
2016-09-28T03:29:28.909Z,20.16
2016-09-28T03:30:01.232Z,20.11
2016-09-28T03:30:33.554Z,20.18
2016-09-28T03:31:05.881Z,20.19
2016-09-28T03:31:38.213Z,20.23
2016-09-28T03:32:10.541Z,20.19
2016-09-28T03:32:42.859Z,20.2
2016-09-28T03:33:15.186Z,20.15
2016-09-28T03:33:47.515Z,20.16
2016-09-28T03:34:19.845Z,20.18
2016-09-28T03:34:52.172Z,20.18
2016-09-28T03:35:24.512Z,20.18
2016-09-28T03:35:56.849Z,20.18
2016-09-28T03:36:29.182Z,20.22
2016-09-28T03:37:01.512Z,20.18
2016-09-28T03:37:33.823Z,20.22
2016-09-28T03:38:06.139Z,20.2
2016-09-28T03:38:38.459Z,20.16
2016-09-28T03:39:10.778Z,20.2
2016-09-28T03:39:43.096Z,20.2
2016-09-28T03:40:15.439Z,20.23
2016-09-28T03:40:47.764Z,20.19
2016-09-28T03:41:20.103Z,20.2
2016-09-28T03:41:52.429Z,20.2
2016-09-28T03:42:24.749Z,20.2
2016-09-28T03:42:57.087Z,20.18
2016-09-28T03:43:29.406Z,20.2
2016-09-28T03:44:01.733Z,20.12
2016-09-28T03:44:34.034Z,20.16
2016-09-28T03:45:06.338Z,20.18
2016-09-28T03:45:38.677Z,20.19
2016-09-28T03:46:11.010Z,20.16
2016-09-28T03:46:43.333Z,20.2
2016-09-28T03:47:15.664Z,20.2
2016-09-28T03:47:47.985Z,20.16
2016-09-28T03:48:20.312Z,20.16
2016-09-28T03:48:52.636Z,20.19
2016-09-28T03:49:24.954Z,20.19
2016-09-28T03:49:57.281Z,20.15
2016-09-28T03:50:29.602Z,20.19
2016-09-28T03:51:01.922Z,20.15
2016-09-28T03:51:34.242Z,20.18
2016-09-28T03:52:06.567Z,20.19
2016-09-28T03:52:38.901Z,20.16
2016-09-28T03:53:11.227Z,20.15
2016-09-28T03:53:43.571Z,20.19
2016-09-28T03:54:15.910Z,20.16
2016-09-28T03:54:48.244Z,20.18
2016-09-28T03:55:20.571Z,20.18
2016-09-28T03:55:52.900Z,20.26
2016-09-28T03:56:25.234Z,20.22
2016-09-28T03:56:57.562Z,20.15
2016-09-28T03:57:29.881Z,20.26
2016-09-28T03:58:02.226Z,20.16
2016-09-28T03:58:34.534Z,20.23
2016-09-28T03:59:06.854Z,20.16
2016-09-28T03:59:39.151Z,20.18
2016-09-28T04:00:11.474Z,20.19
2016-09-28T04:00:43.798Z,20.16
2016-09-28T04:01:16.127Z,20.15
2016-09-28T04:01:48.466Z,20.16
2016-09-28T04:02:20.797Z,20.2
2016-09-28T04:02:53.142Z,20.2
2016-09-28T04:03:25.485Z,20.15
2016-09-28T04:03:57.817Z,20.18
2016-09-28T04:04:30.156Z,20.15
2016-09-28T04:05:02.483Z,20.18
2016-09-28T04:05:34.797Z,20.18
2016-09-28T04:06:07.138Z,20.19
2016-09-28T04:06:39.466Z,20.15
2016-09-28T04:07:11.779Z,20.18
2016-09-28T04:07:44.082Z,20.26
2016-09-28T04:08:16.400Z,20.18
2016-09-28T04:08:48.718Z,20.22
2016-09-28T04:09:21.033Z,20.12
2016-09-28T04:09:53.358Z,20.15
2016-09-28T04:10:25.699Z,20.15
2016-09-28T04:10:58.013Z,20.18
2016-09-28T04:11:30.340Z,20.11
2016-09-28T04:12:02.675Z,20.22
2016-09-28T04:12:35.010Z,20.15
2016-09-28T04:13:07.336Z,20.15
2016-09-28T04:13:39.670Z,20.16
2016-09-28T04:14:11.974Z,20.18
2016-09-28T04:14:44.295Z,20.15
2016-09-28T04:15:16.626Z,20.18
2016-09-28T04:15:48.942Z,20.22
2016-09-28T04:16:21.270Z,20.19
2016-09-28T04:16:53.589Z,20.2
2016-09-28T04:17:25.908Z,20.16
2016-09-28T04:17:58.237Z,20.23
2016-09-28T04:18:30.549Z,20.1
2016-09-28T04:19:02.860Z,20.12
2016-09-28T04:19:35.191Z,20.18
2016-09-28T04:20:07.517Z,20.15
2016-09-28T04:20:39.850Z,20.1
2016-09-28T04:21:12.200Z,20.16
2016-09-28T04:21:44.518Z,20.19
2016-09-28T04:22:16.843Z,20.22
2016-09-28T04:22:49.186Z,20.15
2016-09-28T04:23:21.500Z,20.18
2016-09-28T04:23:53.832Z,20.12
2016-09-28T04:24:26.166Z,20.2
2016-09-28T04:24:58.483Z,20.16
2016-09-28T04:25:30.807Z,20.15
2016-09-28T04:26:03.133Z,20.16
2016-09-28T04:26:35.451Z,20.12
2016-09-28T04:27:07.781Z,20.1
2016-09-28T04:27:40.113Z,20.16
2016-09-28T04:28:12.436Z,20.2
2016-09-28T04:28:44.758Z,20.12
2016-09-28T04:29:17.070Z,20.15
2016-09-28T04:29:49.373Z,20.16
2016-09-28T04:30:21.687Z,20.12
2016-09-28T04:30:54.010Z,20.18
2016-09-28T04:31:26.328Z,20.19
2016-09-28T04:31:58.649Z,20.16
2016-09-28T04:32:30.968Z,20.19
2016-09-28T04:33:03.298Z,20.16
2016-09-28T04:33:35.617Z,20.08
2016-09-28T04:34:07.945Z,20.15
2016-09-28T04:34:40.273Z,20.08
2016-09-28T04:35:12.606Z,20.18
2016-09-28T04:35:44.937Z,20.12
2016-09-28T04:36:17.417Z,20.07
2016-09-28T04:36:49.747Z,20.19
2016-09-28T04:37:22.077Z,20.19
2016-09-28T04:37:54.401Z,20.11
2016-09-28T04:38:26.734Z,20.16
2016-09-28T04:38:59.056Z,20.23
2016-09-28T04:39:31.384Z,20.16
2016-09-28T04:40:03.699Z,20.08
2016-09-28T04:40:36.027Z,20.15
2016-09-28T04:41:08.339Z,20.15
2016-09-28T04:41:40.677Z,20.16
2016-09-28T04:42:13.008Z,20.07
2016-09-28T04:42:45.349Z,20.11
2016-09-28T04:43:17.673Z,20.18
2016-09-28T04:43:50.007Z,20.19
2016-09-28T04:44:22.332Z,20.16
2016-09-28T04:44:54.648Z,20.15
2016-09-28T04:45:26.980Z,20.11
2016-09-28T04:45:59.306Z,20.16
2016-09-28T04:46:31.666Z,20.15
2016-09-28T04:47:03.998Z,20.16
2016-09-28T04:47:36.320Z,20.05
2016-09-28T04:48:08.628Z,20.11
2016-09-28T04:48:40.960Z,20.19
2016-09-28T04:49:13.280Z,20.19
2016-09-28T04:49:45.611Z,20.12
2016-09-28T04:50:17.948Z,20.15
2016-09-28T04:50:50.278Z,20.11
2016-09-28T04:51:22.597Z,20.07
2016-09-28T04:51:54.917Z,20.12
2016-09-28T04:52:27.254Z,20.11
2016-09-28T04:52:59.576Z,20.1
2016-09-28T04:53:31.869Z,20.04
2016-09-28T04:54:04.190Z,20.16
2016-09-28T04:54:37.440Z,20.12
2016-09-28T04:55:09.765Z,20.11
2016-09-28T04:55:42.091Z,20.07
2016-09-28T04:56:14.433Z,20.08
2016-09-28T04:56:46.750Z,20.12
2016-09-28T04:57:19.077Z,20.19
2016-09-28T04:57:51.411Z,20.05
2016-09-28T04:58:23.726Z,20.07
2016-09-28T04:58:56.056Z,20.07
2016-09-28T04:59:28.371Z,20.15
2016-09-28T05:00:00.691Z,20.12
2016-09-28T05:00:33.025Z,20.08
2016-09-28T05:01:05.349Z,20.07
2016-09-28T05:01:37.664Z,20.07
2016-09-28T05:02:09.992Z,20.16
2016-09-28T05:02:42.318Z,20.15
2016-09-28T05:03:14.655Z,20.07
2016-09-28T05:03:46.990Z,20.07
2016-09-28T05:04:19.312Z,20.08
2016-09-28T05:04:51.641Z,20.08
2016-09-28T05:05:23.971Z,20.1
2016-09-28T05:05:56.286Z,20.08
2016-09-28T05:06:28.613Z,20.1
2016-09-28T05:07:00.938Z,20.15
2016-09-28T05:07:33.255Z,20.08
2016-09-28T05:08:05.640Z,20.12
2016-09-28T05:08:39.019Z,20.05
2016-09-28T05:09:11.347Z,20.07
2016-09-28T05:09:43.664Z,20.12
2016-09-28T05:10:15.975Z,20.11
2016-09-28T05:10:48.280Z,20.07
2016-09-28T05:11:20.625Z,20.07
2016-09-28T05:11:52.938Z,20.07
2016-09-28T05:12:25.589Z,20.15
2016-09-28T05:12:57.969Z,20.07
2016-09-28T05:13:30.292Z,20.12
2016-09-28T05:14:02.639Z,20.07
2016-09-28T05:14:34.964Z,20
2016-09-28T05:15:07.289Z,20.11
2016-09-28T05:15:39.625Z,20.1
2016-09-28T05:16:11.948Z,20.15
2016-09-28T05:16:44.269Z,20.07
2016-09-28T05:17:16.587Z,20.05
2016-09-28T05:17:49.063Z,20.08
2016-09-28T05:18:21.384Z,20.04
2016-09-28T05:18:53.713Z,20.05
2016-09-28T05:19:26.022Z,20.11
2016-09-28T05:19:58.363Z,20.08
2016-09-28T05:20:30.738Z,20.07
2016-09-28T05:21:03.113Z,20.05
2016-09-28T05:21:35.812Z,20.08
2016-09-28T05:22:08.107Z,20.07
2016-09-28T05:22:40.425Z,20.1
2016-09-28T05:23:12.741Z,20.08
2016-09-28T05:23:45.053Z,20.07
2016-09-28T05:24:17.387Z,20.04
2016-09-28T05:24:50.005Z,20.08
2016-09-28T05:25:22.313Z,20.07
2016-09-28T05:25:54.638Z,20.07
2016-09-28T05:26:26.951Z,20.05
2016-09-28T05:26:59.972Z,20.08
2016-09-28T05:27:32.442Z,20.11
2016-09-28T05:28:04.792Z,20.1
2016-09-28T05:28:37.119Z,20.05
2016-09-28T05:29:09.456Z,20.08
2016-09-28T05:29:41.760Z,20.08
2016-09-28T05:30:14.084Z,20.07
2016-09-28T05:30:46.413Z,20.04
2016-09-28T05:31:18.735Z,20.04
2016-09-28T05:31:51.067Z,20.05
2016-09-28T05:32:23.377Z,20.08
2016-09-28T05:32:55.689Z,20.08
2016-09-28T05:33:28.023Z,20.12
2016-09-28T05:34:00.348Z,20.08
2016-09-28T05:34:32.681Z,20.08
2016-09-28T05:35:04.996Z,20.11
2016-09-28T05:35:37.297Z,20.05
2016-09-28T05:36:09.613Z,20.08
2016-09-28T05:36:41.962Z,20.05
2016-09-28T05:37:14.272Z,20.15
2016-09-28T05:37:46.605Z,20.08
2016-09-28T05:38:18.937Z,20.07
2016-09-28T05:38:52.054Z,20.08
2016-09-28T05:39:24.361Z,20.08
2016-09-28T05:39:56.689Z,20.08
2016-09-28T05:40:28.989Z,20.08
2016-09-28T05:41:01.305Z,20.08
2016-09-28T05:41:33.648Z,20.1
2016-09-28T05:42:06.267Z,20.18
2016-09-28T05:42:38.858Z,20.16
2016-09-28T05:43:11.425Z,20.19
2016-09-28T05:43:43.989Z,20.11
2016-09-28T05:44:16.695Z,20.11
2016-09-28T05:44:50.282Z,20.1
2016-09-28T05:45:23.827Z,20.07
2016-09-28T05:45:57.137Z,20.19
2016-09-28T05:46:30.657Z,20.15
2016-09-28T05:47:04.160Z,20.11
2016-09-28T05:47:38.158Z,20.16
2016-09-28T05:48:12.004Z,20.08
2016-09-28T05:48:46.197Z,20.08
2016-09-28T05:49:19.341Z,20.16
2016-09-28T05:49:51.685Z,20.07
2016-09-28T05:50:23.995Z,20.18
2016-09-28T05:50:56.436Z,20.16
2016-09-28T05:51:29.526Z,20.16
2016-09-28T05:52:02.120Z,20.22
2016-09-28T05:52:34.426Z,20.18
2016-09-28T05:53:07.536Z,20.1
2016-09-28T05:53:41.519Z,20.07
2016-09-28T05:54:15.618Z,20.19
2016-09-28T05:54:47.934Z,20.18
2016-09-28T05:55:20.291Z,20.16
2016-09-28T05:55:52.641Z,20.1
2016-09-28T05:56:24.960Z,20.19
2016-09-28T05:56:57.275Z,20.16
2016-09-28T05:57:29.612Z,20.19
2016-09-28T05:58:01.963Z,20.15
2016-09-28T05:58:34.294Z,20.2
2016-09-28T05:59:06.617Z,20.19
2016-09-28T05:59:38.931Z,20.19
2016-09-28T06:00:11.262Z,20.22
2016-09-28T06:00:43.587Z,20.19
2016-09-28T06:01:15.919Z,20.15
2016-09-28T06:01:48.241Z,20.2
2016-09-28T06:02:21.528Z,20.16
2016-09-28T06:02:54.368Z,20.15
2016-09-28T06:03:26.712Z,20.19
2016-09-28T06:03:59.264Z,20.2
2016-09-28T06:04:31.674Z,20.19
2016-09-28T06:05:05.011Z,20.12
2016-09-28T06:05:37.343Z,20.2
2016-09-28T06:06:09.681Z,20.18
2016-09-28T06:06:42.075Z,20.18
2016-09-28T06:07:14.451Z,20.12
2016-09-28T06:07:46.799Z,20.25
2016-09-28T06:08:19.124Z,20.27
2016-09-28T06:08:51.431Z,20.22
2016-09-28T06:09:23.757Z,20.32
2016-09-28T06:09:57.519Z,20.16
2016-09-28T06:10:29.861Z,20.2
2016-09-28T06:11:02.162Z,20.25
2016-09-28T06:11:34.593Z,20.19
2016-09-28T06:12:06.943Z,20.2
2016-09-28T06:12:39.267Z,20.22
2016-09-28T06:13:11.578Z,20.22
2016-09-28T06:13:43.904Z,20.29
2016-09-28T06:14:16.295Z,20.23
2016-09-28T06:14:48.867Z,20.22
2016-09-28T06:15:21.207Z,20.32
2016-09-28T06:15:53.522Z,20.22
2016-09-28T06:16:25.859Z,20.32
2016-09-28T06:16:58.198Z,20.27
2016-09-28T06:17:30.530Z,20.3
2016-09-28T06:18:02.851Z,20.32
2016-09-28T06:18:35.173Z,20.26
2016-09-28T06:19:07.489Z,20.34
2016-09-28T06:19:39.811Z,20.27
2016-09-28T06:20:12.209Z,20.26
2016-09-28T06:20:44.615Z,20.29
2016-09-28T06:21:17.848Z,20.22
2016-09-28T06:21:51.039Z,20.25
2016-09-28T06:22:24.135Z,20.27
2016-09-28T06:22:56.591Z,20.23
2016-09-28T06:23:29.131Z,20.29
2016-09-28T06:24:01.627Z,20.23
2016-09-28T06:24:34.180Z,20.3
2016-09-28T06:25:06.524Z,20.27
2016-09-28T06:25:39.032Z,20.26
2016-09-28T06:26:11.512Z,20.27
2016-09-28T06:26:43.829Z,20.23
2016-09-28T06:27:16.625Z,20.22
2016-09-28T06:27:49.203Z,20.23
2016-09-28T06:28:21.741Z,20.26
2016-09-28T06:28:54.472Z,20.32
2016-09-28T06:29:26.760Z,20.23
2016-09-28T06:30:00.049Z,20.22
2016-09-28T06:30:35.554Z,20.23
2016-09-28T06:31:09.414Z,20.35
2016-09-28T06:31:42.402Z,20.22
2016-09-28T06:32:17.039Z,20.26
2016-09-28T06:32:51.155Z,20.26
2016-09-28T06:33:24.028Z,20.35
2016-09-28T06:33:57.538Z,20.18
2016-09-28T06:34:31.465Z,20.35
2016-09-28T06:35:05.366Z,20.35
2016-09-28T06:35:38.688Z,20.34
2016-09-28T06:36:12.263Z,20.37
2016-09-28T06:36:45.781Z,20.37
2016-09-28T06:37:19.685Z,20.19
2016-09-28T06:37:52.324Z,20.26
2016-09-28T06:38:26.772Z,20.32
2016-09-28T06:39:02.144Z,20.32
2016-09-28T06:39:35.743Z,20.4
2016-09-28T06:40:08.218Z,20.42
2016-09-28T06:40:42.059Z,20.42
2016-09-28T06:41:15.274Z,20.4
2016-09-28T06:41:48.631Z,20.41
2016-09-28T06:42:22.998Z,20.38
2016-09-28T06:42:55.858Z,20.34
2016-09-28T06:43:28.655Z,20.4
2016-09-28T06:44:02.227Z,20.48
2016-09-28T06:44:35.618Z,20.48
2016-09-28T06:45:08.867Z,20.44
2016-09-28T06:45:43.038Z,20.37
2016-09-28T06:46:19.198Z,20.42
2016-09-28T06:46:52.505Z,20.49
2016-09-28T06:47:25.730Z,20.38
2016-09-28T06:47:58.906Z,20.46
2016-09-28T06:48:31.855Z,20.35
2016-09-28T06:49:06.027Z,20.46
2016-09-28T06:49:39.264Z,20.37
2016-09-28T06:50:12.375Z,20.37
2016-09-28T06:50:45.952Z,20.37
2016-09-28T06:51:18.907Z,20.48
2016-09-28T06:51:52.223Z,20.51
2016-09-28T06:52:26.289Z,20.41
2016-09-28T06:52:59.484Z,20.37
2016-09-28T06:53:32.572Z,20.4
2016-09-28T06:54:07.544Z,20.41
2016-09-28T06:54:43.547Z,20.51
2016-09-28T06:55:16.961Z,20.46
2016-09-28T06:55:50.016Z,20.41
2016-09-28T06:56:23.852Z,20.42
2016-09-28T06:56:56.802Z,20.54
2016-09-28T06:57:30.705Z,20.53
2016-09-28T06:58:04.351Z,20.51
2016-09-28T06:58:37.365Z,20.49
2016-09-28T06:59:11.839Z,20.6
2016-09-28T06:59:46.629Z,20.56